createdAt,value
2022-10-05T00:00:24.334Z,95881.59
2022-10-05T00:02:54.454Z,95881.25
2022-10-05T00:05:28.247Z,95879.88
2022-10-05T00:07:58.748Z,95879.31
2022-10-05T00:10:30.268Z,95873.81
2022-10-05T00:12:58.288Z,95876.13
2022-10-05T00:15:26.180Z,95872.69
2022-10-05T00:17:54.314Z,95873.50
2022-10-05T00:20:25.091Z,95870.72
2022-10-05T00:22:58.449Z,95875.84
2022-10-05T00:25:28.180Z,95871.19
2022-10-05T00:27:57.824Z,95869.56
2022-10-05T00:30:27.996Z,95865.94
2022-10-05T00:32:59.489Z,95868.44
2022-10-05T00:35:29.447Z,95872.56
2022-10-05T00:37:57.891Z,95872.56
2022-10-05T00:40:37.978Z,95871.38
2022-10-05T00:43:26.448Z,95866.13
2022-10-05T00:46:01.225Z,95872.09
2022-10-05T00:48:37.178Z,95865.66
2022-10-05T00:51:17.336Z,95869.94
2022-10-05T00:53:52.353Z,95861.59
2022-10-05T00:56:49.762Z,95869.78
2022-10-05T00:59:33.466Z,95870.03
2022-10-05T01:02:11.310Z,95865.09
2022-10-05T01:04:48.900Z,95875.91
2022-10-05T01:07:28.361Z,95869.06
2022-10-05T01:10:05.342Z,95870.66
2022-10-05T01:12:44.028Z,95875.22
2022-10-05T01:15:20.741Z,95876.13
2022-10-05T01:17:55.624Z,95876.13
2022-10-05T01:20:37.061Z,95873.34
2022-10-05T01:23:27.313Z,95882.97
2022-10-05T01:26:08.617Z,95871.75
2022-10-05T01:28:42.204Z,95871.50
2022-10-05T01:31:19.626Z,95875.38
2022-10-05T01:33:53.658Z,95875.50
2022-10-05T01:36:30.590Z,95879.97
2022-10-05T01:39:06.163Z,95879.50
2022-10-05T01:41:42.287Z,95875.84
2022-10-05T01:44:16.163Z,95874.72
2022-10-05T01:46:51.439Z,95878.81
2022-10-05T01:49:36.970Z,95872.41
2022-10-05T01:52:17.261Z,95876.47
2022-10-05T01:54:58.821Z,95871.69
2022-10-05T01:57:39.451Z,95869.28
2022-10-05T02:00:10.968Z,95859.81
2022-10-05T02:02:47.160Z,95860.03
2022-10-05T02:05:19.852Z,95860.03
2022-10-05T02:07:54.650Z,95861.63
2022-10-05T02:10:27.090Z,95862.34
2022-10-05T02:13:01.291Z,95858.69
2022-10-05T02:15:39.598Z,95860.84
2022-10-05T02:18:11.997Z,95856.84
2022-10-05T02:20:43.464Z,95857.88
2022-10-05T02:23:15.557Z,95867.34
2022-10-05T02:25:48.210Z,95862.53
2022-10-05T02:28:22.285Z,95863.00
2022-10-05T02:30:55.746Z,95864.66
2022-10-05T02:33:29.297Z,95859.78
2022-10-05T02:36:03.319Z,95858.16
2022-10-05T02:38:42.389Z,95858.78
2022-10-05T02:41:22.599Z,95862.25
2022-10-05T02:43:58.478Z,95858.72
2022-10-05T02:46:35.416Z,95860.66
2022-10-05T02:49:15.649Z,95851.75
2022-10-05T02:51:52.092Z,95849.72
2022-10-05T02:54:33.235Z,95854.25
2022-10-05T02:57:06.149Z,95842.16
2022-10-05T02:59:40.092Z,95850.25
2022-10-05T03:02:19.957Z,95853.09
2022-10-05T03:04:57.272Z,95855.16
2022-10-05T03:07:30.389Z,95856.75
2022-10-05T03:10:07.048Z,95858.44
2022-10-05T03:12:50.879Z,95848.03
2022-10-05T03:15:37.751Z,95848.81
2022-10-05T03:18:13.935Z,95854.88
2022-10-05T03:20:49.869Z,95850.78
2022-10-05T03:23:30.555Z,95845.97
2022-10-05T03:26:20.499Z,95847.56
2022-10-05T03:28:59.877Z,95852.09
2022-10-05T03:31:36.799Z,95849.63
2022-10-05T03:34:12.472Z,95851.22
2022-10-05T03:36:50.400Z,95850.50
2022-10-05T03:39:28.233Z,95851.41
2022-10-05T03:42:02.859Z,95850.66
2022-10-05T03:44:41.864Z,95848.47
2022-10-05T03:47:15.903Z,95850.31
2022-10-05T03:49:59.238Z,95849.50
2022-10-05T03:52:35.723Z,95852.69
2022-10-05T03:55:10.551Z,95849.41
2022-10-05T03:57:41.449Z,95850.66
2022-10-05T04:00:16.575Z,95845.84
2022-10-05T04:02:59.160Z,95839.47
2022-10-05T04:05:33.020Z,95835.81
2022-10-05T04:08:05.865Z,95845.41
2022-10-05T04:10:40.954Z,95845.84
2022-10-05T04:13:15.324Z,95851.53
2022-10-05T04:15:51.540Z,95848.34
2022-10-05T04:18:26.667Z,95841.06
2022-10-05T04:21:01.184Z,95856.34
2022-10-05T04:23:40.123Z,95856.34
2022-10-05T04:26:13.405Z,95859.09
2022-10-05T04:28:50.089Z,95847.47
2022-10-05T04:31:29.997Z,95846.22
2022-10-05T04:34:05.779Z,95848.78
2022-10-05T04:36:43.177Z,95848.63
2022-10-05T04:39:22.622Z,95844.81
2022-10-05T04:42:02.276Z,95840.38
2022-10-05T04:44:43.543Z,95843.56
2022-10-05T04:47:27.009Z,95848.00
2022-10-05T04:50:08.819Z,95845.56
2022-10-05T04:52:44.705Z,95842.50
2022-10-05T04:55:23.949Z,95838.84
2022-10-05T04:58:03.475Z,95846.44
2022-10-05T05:00:44.075Z,95842.50
2022-10-05T05:03:30.346Z,95838.50
2022-10-05T05:06:22.384Z,95839.94
2022-10-05T05:09:13.935Z,95844.97
2022-10-05T05:11:55.028Z,95851.81
2022-10-05T05:14:45.318Z,95847.00
2022-10-05T05:17:28.253Z,95855.28
2022-10-05T05:20:05.224Z,95850.22
2022-10-05T05:22:41.634Z,95852.66
2022-10-05T05:25:36.823Z,95855.88
2022-10-05T05:28:18.597Z,95854.66
2022-10-05T05:30:53.534Z,95854.28
2022-10-05T05:33:24.296Z,95852.47
2022-10-05T05:36:26.875Z,95857.63
2022-10-05T05:39:20.148Z,95856.81
2022-10-05T05:41:59.068Z,95854.84
2022-10-05T05:44:29.441Z,95860.81
2022-10-05T05:47:04.916Z,95870.41
2022-10-05T05:49:50.817Z,95869.56
2022-10-05T05:52:25.380Z,95870.16
2022-10-05T05:55:00.225Z,95880.50
2022-10-05T05:57:34.500Z,95884.94
2022-10-05T06:00:06.784Z,95882.50
2022-10-05T06:02:54.965Z,95889.34
2022-10-05T06:05:31.296Z,95885.72
2022-10-05T06:08:07.325Z,95883.25
2022-10-05T06:10:42.055Z,95901.75
2022-10-05T06:13:19.655Z,95891.25
2022-10-05T06:15:52.786Z,95896.56
2022-10-05T06:18:22.849Z,95894.03
2022-10-05T06:20:59.485Z,95902.91
2022-10-05T06:23:35.186Z,95898.41
2022-10-05T06:26:23.119Z,95904.41
2022-10-05T06:28:57.327Z,95899.75
2022-10-05T06:31:38.022Z,95899.75
2022-10-05T06:34:17.941Z,95897.13
2022-10-05T06:36:51.417Z,95889.84
2022-10-05T06:39:45.252Z,95898.25
2022-10-05T06:42:28.441Z,95886.91
2022-10-05T06:45:20.177Z,95891.31
2022-10-05T06:48:20.471Z,95895.81
2022-10-05T06:51:11.506Z,95899.75
2022-10-05T06:53:51.766Z,95897.56
2022-10-05T06:56:27.793Z,95901.00
2022-10-05T06:59:04.502Z,95904.13
2022-10-05T07:01:48.103Z,95911.97
2022-10-05T07:04:36.058Z,95909.63
2022-10-05T07:07:14.760Z,95902.03
2022-10-05T07:09:55.638Z,95907.97
2022-10-05T07:12:42.659Z,95912.63
2022-10-05T07:15:25.996Z,95921.41
2022-10-05T07:18:07.699Z,95921.50
2022-10-05T07:20:49.160Z,95925.78
2022-10-05T07:23:28.910Z,95921.72
2022-10-05T07:26:05.990Z,95917.19
2022-10-05T07:28:40.549Z,95918.47
2022-10-05T07:31:14.944Z,95913.91
2022-10-05T07:33:52.817Z,95915.19
2022-10-05T07:36:50.962Z,95914.78
2022-10-05T07:39:55.259Z,95917.56
2022-10-05T07:42:31.202Z,95916.66
2022-10-05T07:45:09.439Z,95918.25
2022-10-05T07:47:44.671Z,95921.69
2022-10-05T07:50:22.926Z,95922.84
2022-10-05T07:52:58.249Z,95916.69
2022-10-05T07:55:28.618Z,95922.75
2022-10-05T07:58:06.430Z,95922.16
2022-10-05T08:00:52.655Z,95920.53
2022-10-05T08:03:31.564Z,95918.94
2022-10-05T08:06:02.257Z,95919.75
2022-10-05T08:08:36.967Z,95917.81
2022-10-05T08:11:15.611Z,95913.69
2022-10-05T08:13:51.172Z,95921.81
2022-10-05T08:16:20.011Z,95922.84
2022-10-05T08:18:56.943Z,95909.56
2022-10-05T08:21:35.001Z,95915.28
2022-10-05T08:24:14.597Z,95914.03
2022-10-05T08:26:48.980Z,95921.25
2022-10-05T08:29:23.840Z,95917.50
2022-10-05T08:31:58.197Z,95917.34
2022-10-05T08:34:31.559Z,95925.25
2022-10-05T08:37:05.105Z,95918.25
2022-10-05T08:39:38.434Z,95927.72
2022-10-05T08:42:36.829Z,95923.28
2022-10-05T08:45:36.319Z,95929.56
2022-10-05T08:48:40.345Z,95926.94
2022-10-05T08:51:21.679Z,95933.78
2022-10-05T09:02:20.577Z,95938.38
2022-10-05T09:05:10.280Z,95930.78
2022-10-05T09:08:12.533Z,95927.06
2022-10-05T09:11:05.012Z,95931.03
2022-10-05T09:14:06.470Z,95932.84
2022-10-05T09:16:49.633Z,95926.66
2022-10-05T09:19:41.081Z,95926.38
2022-10-05T09:22:16.272Z,95926.09
2022-10-05T09:24:59.508Z,95926.25
2022-10-05T09:27:38.853Z,95929.47
2022-10-05T09:30:22.397Z,95925.91
2022-10-05T09:33:27.046Z,95924.84
2022-10-05T09:36:15.723Z,95920.22
2022-10-05T09:39:20.115Z,95920.41
2022-10-05T09:42:24.272Z,95917.84
2022-10-05T09:45:36.912Z,95912.66
2022-10-05T09:48:35.377Z,95914.34
2022-10-05T09:51:35.880Z,95912.94
2022-10-05T09:54:40.980Z,95915.66
2022-10-05T09:57:37.420Z,95911.66
2022-10-05T10:00:24.136Z,95920.13
2022-10-05T10:03:28.884Z,95908.84
2022-10-05T10:06:13.805Z,95914.53
2022-10-05T10:08:53.849Z,95914.16
2022-10-05T10:11:51.611Z,95913.38
2022-10-05T10:15:09.694Z,95919.75
2022-10-05T10:18:02.703Z,95918.63
2022-10-05T10:20:46.007Z,95918.28
2022-10-05T10:23:28.658Z,95919.53
2022-10-05T10:26:27.937Z,95915.06
2022-10-05T10:29:22.972Z,95916.78
2022-10-05T10:35:09.181Z,95917.50
2022-10-05T10:37:40.638Z,95920.25
2022-10-05T10:40:31.345Z,95919.91
2022-10-05T10:43:26.612Z,95929.56
2022-10-05T10:46:03.196Z,95925.69
2022-10-05T10:48:58.672Z,95929.69
2022-10-05T10:51:53.771Z,95924.97
2022-10-05T10:54:38.277Z,95913.44
2022-10-05T10:57:10.438Z,95917.72
2022-10-05T11:00:15.763Z,95913.50
2022-10-05T11:03:26.808Z,95911.50
2022-10-05T11:06:17.153Z,95920.00
2022-10-05T11:09:12.447Z,95917.50
2022-10-05T11:12:14.557Z,95918.16
2022-10-05T11:14:59.205Z,95918.22
2022-10-05T11:17:41.629Z,95912.94
2022-10-05T11:20:33.131Z,95910.31
2022-10-05T11:23:27.742Z,95906.09
2022-10-05T11:26:15.610Z,95899.25
2022-10-05T11:29:17.342Z,95898.69
2022-10-05T11:32:22.030Z,95895.56
2022-10-05T11:35:21.096Z,95890.84
2022-10-05T11:38:08.763Z,95893.00
2022-10-05T11:41:15.918Z,95890.34
2022-10-05T11:44:23.233Z,95879.28
2022-10-05T11:46:59.511Z,95880.63
2022-10-05T11:49:35.307Z,95877.44
2022-10-05T11:52:14.103Z,95881.16
2022-10-05T11:55:14.859Z,95877.75
2022-10-05T11:57:50.207Z,95871.75
2022-10-05T12:00:21.972Z,95874.66
2022-10-05T12:03:13.125Z,95863.00
2022-10-05T12:05:54.348Z,95870.44
2022-10-05T12:08:34.409Z,95864.63
2022-10-05T12:11:10.175Z,95866.22
2022-10-05T12:13:43.344Z,95863.59
2022-10-05T12:16:18.790Z,95858.56
2022-10-05T12:19:01.328Z,95856.44
2022-10-05T12:21:45.636Z,95853.00
2022-10-05T12:24:26.506Z,95855.91
2022-10-05T12:27:02.185Z,95856.97
2022-10-05T12:29:41.673Z,95853.00
2022-10-05T12:32:17.187Z,95858.28
2022-10-05T12:35:01.459Z,95843.47
2022-10-05T12:37:42.319Z,95851.97
2022-10-05T12:40:22.336Z,95852.50
2022-10-05T12:42:58.821Z,95851.47
2022-10-05T12:45:36.392Z,95844.56
2022-10-05T12:48:42.251Z,95851.19
2022-10-05T12:51:17.500Z,95846.16
2022-10-05T12:53:56.840Z,95843.25
2022-10-05T12:56:35.090Z,95850.44
2022-10-05T12:59:14.390Z,95846.19
2022-10-05T13:01:48.427Z,95843.53
2022-10-05T13:04:29.113Z,95849.13
2022-10-05T13:07:12.185Z,95843.53
2022-10-05T13:09:47.497Z,95842.72
2022-10-05T13:12:36.085Z,95845.63
2022-10-05T13:15:13.750Z,95846.69
2022-10-05T13:17:51.413Z,95848.53
2022-10-05T13:20:28.732Z,95841.34
2022-10-05T13:23:02.746Z,95845.59
2022-10-05T13:25:35.191Z,95847.38
2022-10-05T13:28:16.735Z,95849.78
2022-10-05T13:30:53.969Z,95840.69
2022-10-05T13:33:31.623Z,95841.47
2022-10-05T13:36:06.812Z,95846.47
2022-10-05T13:38:48.120Z,95852.25
2022-10-05T13:41:24.949Z,95851.16
2022-10-05T13:44:04.812Z,95852.25
2022-10-05T13:46:39.417Z,95843.75
2022-10-05T13:49:21.558Z,95849.63
2022-10-05T13:51:59.723Z,95859.69
2022-10-05T13:54:37.899Z,95856.50
2022-10-05T13:57:19.243Z,95853.72
2022-10-05T13:59:54.450Z,95857.44
2022-10-05T14:02:28.251Z,95859.50
2022-10-05T14:05:01.122Z,95863.22
2022-10-05T14:07:35.013Z,95863.69
2022-10-05T14:10:04.761Z,95866.91
2022-10-05T14:12:40.935Z,95869.03
2022-10-05T14:15:23.328Z,95875.41
2022-10-05T14:17:52.785Z,95866.25
2022-10-05T14:20:25.522Z,95868.34
2022-10-05T14:23:00.677Z,95865.69
2022-10-05T14:25:29.742Z,95866.81
2022-10-05T14:28:02.185Z,95870.59
2022-10-05T14:30:31.151Z,95862.56
2022-10-05T14:33:10.084Z,95872.75
2022-10-05T14:35:49.078Z,95863.09
2022-10-05T14:38:25.727Z,95863.50
2022-10-05T14:41:15.960Z,95861.81
2022-10-05T14:43:52.665Z,95862.94
2022-10-05T14:46:28.589Z,95861.41
2022-10-05T14:49:18.121Z,95858.16
2022-10-05T14:51:46.150Z,95858.56
2022-10-05T14:54:30.561Z,95865.41
2022-10-05T14:57:07.353Z,95861.66
2022-10-05T15:00:01.110Z,95864.31
2022-10-05T15:03:03.574Z,95868.09
2022-10-05T15:05:36.858Z,95868.66
2022-10-05T15:08:16.626Z,95863.72
2022-10-05T15:10:53.760Z,95867.47
2022-10-05T15:13:25.263Z,95868.50
2022-10-05T15:15:55.616Z,95862.03
2022-10-05T15:18:39.557Z,95865.31
2022-10-05T15:21:37.355Z,95864.44
2022-10-05T15:24:10.309Z,95858.16
2022-10-05T15:26:51.766Z,95854.91
2022-10-05T15:29:47.304Z,95850.38
2022-10-05T15:32:30.131Z,95850.28
2022-10-05T15:35:20.308Z,95863.78
2022-10-05T15:37:55.845Z,95863.03
2022-10-05T15:40:37.132Z,95868.88
2022-10-05T15:43:13.578Z,95870.75
2022-10-05T15:45:53.747Z,95866.97
2022-10-05T15:48:29.934Z,95877.59
2022-10-05T15:51:07.006Z,95866.47
2022-10-05T15:53:43.386Z,95869.22
2022-10-05T15:56:20.223Z,95874.53
2022-10-05T15:58:55.509Z,95872.44
2022-10-05T16:01:40.380Z,95874.53
2022-10-05T16:04:15.653Z,95872.38
2022-10-05T16:07:12.160Z,95872.59
2022-10-05T16:09:50.116Z,95876.09
2022-10-05T16:12:31.204Z,95878.19
2022-10-05T16:15:16.870Z,95871.38
2022-10-05T16:18:02.014Z,95868.31
2022-10-05T16:20:42.313Z,95875.25
2022-10-05T16:23:24.275Z,95871.03
2022-10-05T16:26:04.695Z,95875.78
2022-10-05T16:28:45.195Z,95864.97
2022-10-05T16:31:20.038Z,95873.16
2022-10-05T16:34:00.160Z,95865.72
2022-10-05T16:36:44.722Z,95867.88
2022-10-05T16:39:20.939Z,95875.84
2022-10-05T16:41:57.880Z,95875.31
2022-10-05T16:44:39.448Z,95877.97
2022-10-05T16:47:31.565Z,95884.91
2022-10-05T16:50:10.675Z,95888.63
2022-10-05T16:52:43.541Z,95896.59
2022-10-05T16:55:15.803Z,95901.56
2022-10-05T16:57:48.453Z,95901.81
2022-10-05T17:00:22.085Z,95903.41
2022-10-05T17:03:09.919Z,95906.78
2022-10-05T17:06:03.973Z,95903.88
2022-10-05T17:08:50.323Z,95913.66
2022-10-05T17:11:30.879Z,95921.31
2022-10-05T17:14:13.898Z,95922.88
2022-10-05T17:16:52.590Z,95928.94
2022-10-05T17:19:38.416Z,95932.31
2022-10-05T17:22:14.010Z,95925.09
2022-10-05T17:24:53.692Z,95933.28
2022-10-05T17:27:32.420Z,95930.59
2022-10-05T17:30:37.062Z,95943.53
2022-10-05T17:33:20.572Z,95948.44
2022-10-05T17:35:58.301Z,95959.03
2022-10-05T17:38:51.841Z,95959.03
2022-10-05T17:41:29.601Z,95961.13
2022-10-05T17:44:21.018Z,95968.94
2022-10-05T17:46:51.029Z,95965.25
2022-10-05T17:50:08.040Z,95975.34
2022-10-05T17:52:58.752Z,95979.59
2022-10-05T17:55:45.114Z,95981.09
2022-10-05T17:59:02.034Z,95988.47
2022-10-05T18:01:33.933Z,95993.75
2022-10-05T18:04:30.515Z,95995.34
2022-10-05T18:07:16.341Z,95996.94
2022-10-05T18:10:02.239Z,96002.69
2022-10-05T18:12:51.039Z,96008.72
2022-10-05T18:15:48.482Z,96019.00
2022-10-05T18:18:55.833Z,96024.28
2022-10-05T18:21:34.200Z,96019.78
2022-10-05T18:24:18.279Z,96024.16
2022-10-05T18:27:00.102Z,96027.44
2022-10-05T18:30:02.179Z,96033.47
2022-10-05T18:32:50.266Z,96039.19
2022-10-05T18:35:24.134Z,96033.91
2022-10-05T18:38:03.702Z,96036.97
2022-10-05T18:40:43.304Z,96039.56
2022-10-05T18:43:29.096Z,96048.25
2022-10-05T18:46:08.237Z,96042.56
2022-10-05T18:48:46.053Z,96051.00
2022-10-05T18:51:22.632Z,96051.47
2022-10-05T18:54:05.933Z,96057.25
2022-10-05T18:56:38.980Z,96063.84
2022-10-05T18:59:32.128Z,96067.66
2022-10-05T19:02:12.574Z,96077.75
2022-10-05T19:04:55.699Z,96073.50
2022-10-05T19:07:33.596Z,96075.53
2022-10-05T19:10:10.493Z,96072.34
2022-10-05T19:12:51.715Z,96080.19
2022-10-05T19:15:27.645Z,96086.59
2022-10-05T19:18:18.598Z,96088.66
2022-10-05T19:20:53.435Z,96090.06
2022-10-05T19:23:35.465Z,96095.28
2022-10-05T19:26:12.595Z,96098.41
2022-10-05T19:28:54.988Z,96100.50
2022-10-05T19:31:35.816Z,96111.06
2022-10-05T19:34:19.172Z,96121.59
2022-10-05T19:36:59.285Z,96120.00
2022-10-05T19:39:38.406Z,96124.97
2022-10-05T19:42:39.297Z,96124.19
2022-10-05T19:45:18.898Z,96134.75
2022-10-05T19:48:00.296Z,96129.91
2022-10-05T19:50:30.356Z,96134.56
2022-10-05T19:53:07.350Z,96132.16
2022-10-05T19:55:38.329Z,96139.03
2022-10-05T19:58:19.646Z,96139.34
2022-10-05T20:00:55.612Z,96150.72
2022-10-05T20:03:29.473Z,96152.56
2022-10-05T20:05:59.104Z,96158.63
2022-10-05T20:08:31.945Z,96158.88
2022-10-05T20:11:09.096Z,96162.06
2022-10-05T20:13:39.407Z,96168.94
2022-10-05T20:16:27.819Z,96177.06
2022-10-05T20:19:14.908Z,96181.53
2022-10-05T20:21:48.862Z,96178.03
2022-10-05T20:24:18.777Z,96180.75
2022-10-05T20:27:05.325Z,96184.41
2022-10-05T20:29:36.484Z,96185.69
2022-10-05T20:32:08.676Z,96186.50
2022-10-05T20:34:41.396Z,96193.84
2022-10-05T20:37:10.580Z,96198.09
2022-10-05T20:39:39.263Z,96205.53
2022-10-05T20:42:07.845Z,96199.88
2022-10-05T20:44:36.290Z,96204.78
2022-10-05T20:47:04.742Z,96208.66
2022-10-05T20:49:45.424Z,96211.38
2022-10-05T20:52:15.131Z,96210.34
2022-10-05T20:54:43.465Z,96218.03
2022-10-05T20:57:12.439Z,96218.38
2022-10-05T20:59:40.780Z,96221.56
2022-10-05T21:02:09.867Z,96221.09
2022-10-05T21:04:41.905Z,96226.38
2022-10-05T21:07:11.444Z,96227.97
2022-10-05T21:09:44.621Z,96227.50
2022-10-05T21:12:18.648Z,96232.78
2022-10-05T21:14:47.547Z,96227.03
2022-10-05T21:17:15.500Z,96233.66
2022-10-05T21:19:43.506Z,96237.69
2022-10-05T21:22:12.838Z,96248.00
2022-10-05T21:24:41.522Z,96241.44
2022-10-05T21:27:10.195Z,96247.47
2022-10-05T21:29:41.049Z,96253.25
2022-10-05T21:32:11.770Z,96254.69
2022-10-05T21:34:40.011Z,96257.75
2022-10-05T21:37:08.566Z,96260.16
2022-10-05T21:39:37.948Z,96252.00
2022-10-05T21:42:05.986Z,96250.88
2022-10-05T21:44:34.013Z,96253.81
2022-10-05T21:47:02.450Z,96258.66
2022-10-05T21:49:31.203Z,96270.81
2022-10-05T21:52:01.135Z,96258.66
2022-10-05T21:54:29.156Z,96248.44
2022-10-05T21:57:00.091Z,96261.72
2022-10-05T21:59:32.023Z,96255.66
2022-10-05T22:01:59.974Z,96257.25
2022-10-05T22:04:27.976Z,96264.47
2022-10-05T22:06:57.075Z,96261.59
2022-10-05T22:09:25.012Z,96262.06
2022-10-05T22:11:53.175Z,96271.00
2022-10-05T22:14:22.547Z,96269.41
2022-10-05T22:16:50.634Z,96271.47
2022-10-05T22:19:20.953Z,96275.47
2022-10-05T22:21:48.935Z,96258.53
2022-10-05T22:24:17.013Z,96270.34
2022-10-05T22:26:48.264Z,96270.34
2022-10-05T22:29:17.884Z,96270.25
2022-10-05T22:31:48.868Z,96273.31
2022-10-05T22:34:17.947Z,96269.88
2022-10-05T22:36:45.927Z,96269.88
2022-10-05T22:39:13.932Z,96274.13
2022-10-05T22:41:41.883Z,96273.78
2022-10-05T22:44:10.079Z,96277.44
2022-10-05T22:46:38.408Z,96274.25
2022-10-05T22:49:07.945Z,96275.84
2022-10-05T22:51:36.014Z,96273.78
2022-10-05T22:54:03.952Z,96271.72
2022-10-05T22:56:31.935Z,96271.16
2022-10-05T22:58:59.894Z,96278.50
2022-10-05T23:01:28.189Z,96284.78
2022-10-05T23:03:57.307Z,96290.88
2022-10-05T23:06:27.526Z,96292.00
2022-10-05T23:08:56.069Z,96296.91
2022-10-05T23:11:26.003Z,96294.88
2022-10-05T23:13:55.762Z,96300.72
2022-10-05T23:16:26.759Z,96293.72
2022-10-05T23:18:55.416Z,96295.53
2022-10-05T23:21:25.133Z,96300.34
2022-10-05T23:23:54.539Z,96299.53
2022-10-05T23:26:23.823Z,96298.31
2022-10-05T23:28:51.954Z,96304.00
2022-10-05T23:31:22.105Z,96311.47
2022-10-05T23:33:50.222Z,96304.00
2022-10-05T23:36:19.952Z,96310.78
2022-10-05T23:38:48.404Z,96314.78
2022-10-05T23:41:19.613Z,96317.88
2022-10-05T23:43:48.185Z,96315.34
2022-10-05T23:46:17.631Z,96311.31
2022-10-05T23:48:45.707Z,96309.72
2022-10-05T23:51:15.569Z,96309.25
2022-10-05T23:53:43.514Z,96311.09
2022-10-05T23:56:11.664Z,96307.72
2022-10-05T23:58:41.240Z,96313.34
